Calafate, Argentina
Current Conditions -  °F | °C
As of 4:00 PM on Thursday 30 Oct 2014 (Local Time) from SAWG Reporting Station
Moderate Snow Moderate Snow  
Wind Chill: 28°   Ceiling: 800
Heat Index: 37°   Visibility: 3mi
Dew Point: 34°   Wind: 17mph
Humidity: 87%   Direction: 160°SSE
Pressure: 29.56"   Gusts: NA
Location:  50.33°S, 72.27°W
Report Text: SAWG 301900Z 16015KT 5000 RASN BKN008OVC040 03/01 Q1001
Loading
Personal Weather Stations






























Interactive Weather Map
Tropical Storm Tracking
New forecast layout! Learn more

10-Day Weather Forecast

Advertisements
Track Severe Weather on mobile